sensor_id;sensor_type;location;lat;lon;timestamp;P1;durP1;ratioP1;P2;durP2;ratioP2
65092;SDS011;52025;50.288;2.794;2023-02-12T05:34:01;17.02;;;9.65;;
65092;SDS011;52025;50.288;2.794;2023-02-12T05:36:26;15.75;;;9.32;;
65092;SDS011;52025;50.288;2.794;2023-02-12T05:38:52;12.50;;;8.45;;
65092;SDS011;52025;50.288;2.794;2023-02-12T05:41:21;14.18;;;9.20;;
65092;SDS011;52025;50.288;2.794;2023-02-12T05:43:46;14.27;;;8.77;;
65092;SDS011;52025;50.288;2.794;2023-02-12T05:46:12;14.52;;;8.75;;
65092;SDS011;52025;50.288;2.794;2023-02-12T05:48:38;16.65;;;9.55;;
65092;SDS011;52025;50.288;2.794;2023-02-12T05:51:05;13.40;;;8.75;;
65092;SDS011;52025;50.288;2.794;2023-02-12T05:53:30;18.08;;;10.57;;
65092;SDS011;52025;50.288;2.794;2023-02-12T05:56:05;16.35;;;9.82;;
65092;SDS011;52025;50.288;2.794;2023-02-12T05:58:30;23.75;;;16.58;;
65092;SDS011;52025;50.288;2.794;2023-02-12T06:00:56;16.35;;;10.68;;
65092;SDS011;52025;50.288;2.794;2023-02-12T06:03:21;17.63;;;10.57;;
65092;SDS011;52025;50.288;2.794;2023-02-12T06:05:50;18.02;;;10.63;;
65092;SDS011;52025;50.288;2.794;2023-02-12T06:08:15;18.42;;;11.05;;
65092;SDS011;52025;50.288;2.794;2023-02-12T06:10:40;18.48;;;11.20;;
65092;SDS011;52025;50.288;2.794;2023-02-12T06:13:06;17.17;;;10.40;;
65092;SDS011;52025;50.288;2.794;2023-02-12T06:15:31;17.58;;;10.85;;
65092;SDS011;52025;50.288;2.794;2023-02-12T06:17:56;19.17;;;12.20;;
65092;SDS011;52025;50.288;2.794;2023-02-12T06:20:21;22.45;;;13.10;;
65092;SDS011;52025;50.288;2.794;2023-02-12T06:22:49;26.67;;;13.90;;
65092;SDS011;52025;50.288;2.794;2023-02-12T06:25:14;19.67;;;12.93;;
65092;SDS011;52025;50.288;2.794;2023-02-12T06:27:39;22.13;;;13.70;;
65092;SDS011;52025;50.288;2.794;2023-02-12T06:30:05;21.33;;;13.52;;
65092;SDS011;52025;50.288;2.794;2023-02-12T06:32:30;19.63;;;12.52;;
65092;SDS011;52025;50.288;2.794;2023-02-12T06:34:56;20.25;;;13.15;;
65092;SDS011;52025;50.288;2.794;2023-02-12T06:37:21;22.17;;;12.00;;
65092;SDS011;52025;50.288;2.794;2023-02-12T06:39:46;19.15;;;12.57;;
65092;SDS011;52025;50.288;2.794;2023-02-12T06:42:11;19.75;;;12.30;;
65092;SDS011;52025;50.288;2.794;2023-02-12T06:44:37;19.80;;;12.77;;
65092;SDS011;52025;50.288;2.794;2023-02-12T06:47:02;19.23;;;12.07;;
65092;SDS011;52025;50.288;2.794;2023-02-12T06:49:27;18.73;;;11.77;;
65092;SDS011;52025;50.288;2.794;2023-02-12T06:51:52;18.25;;;11.25;;
65092;SDS011;52025;50.288;2.794;2023-02-12T06:54:18;16.98;;;11.07;;
65092;SDS011;52025;50.288;2.794;2023-02-12T06:56:43;16.98;;;11.00;;
65092;SDS011;52025;50.288;2.794;2023-02-12T06:59:11;18.40;;;12.10;;
65092;SDS011;52025;50.288;2.794;2023-02-12T07:01:36;18.48;;;12.40;;
65092;SDS011;52025;50.288;2.794;2023-02-12T07:04:02;19.05;;;11.95;;
65092;SDS011;52025;50.288;2.794;2023-02-12T07:06:27;20.27;;;12.30;;
65092;SDS011;52025;50.288;2.794;2023-02-12T07:08:53;19.33;;;12.55;;
65092;SDS011;52025;50.288;2.794;2023-02-12T07:11:21;19.15;;;13.05;;
65092;SDS011;52025;50.288;2.794;2023-02-12T07:13:47;20.80;;;12.77;;
65092;SDS011;52025;50.288;2.794;2023-02-12T07:16:13;19.42;;;12.32;;
65092;SDS011;52025;50.288;2.794;2023-02-12T07:18:39;20.65;;;12.38;;
65092;SDS011;52025;50.288;2.794;2023-02-12T07:21:04;21.70;;;13.48;;
65092;SDS011;52025;50.288;2.794;2023-02-12T07:23:30;19.45;;;12.35;;
65092;SDS011;52025;50.288;2.794;2023-02-12T07:25:56;17.27;;;12.00;;
65092;SDS011;52025;50.288;2.794;2023-02-12T07:28:21;19.75;;;11.93;;
65092;SDS011;52025;50.288;2.794;2023-02-12T07:30:47;18.10;;;12.15;;
65092;SDS011;52025;50.288;2.794;2023-02-12T07:33:12;20.83;;;13.05;;
65092;SDS011;52025;50.288;2.794;2023-02-12T07:35:37;23.00;;;13.55;;
65092;SDS011;52025;50.288;2.794;2023-02-12T07:38:03;20.98;;;13.30;;
65092;SDS011;52025;50.288;2.794;2023-02-12T07:40:28;20.58;;;13.38;;
65092;SDS011;52025;50.288;2.794;2023-02-12T07:42:56;21.25;;;12.35;;
65092;SDS011;52025;50.288;2.794;2023-02-12T07:45:23;22.15;;;13.25;;
65092;SDS011;52025;50.288;2.794;2023-02-12T07:47:49;23.60;;;12.70;;
65092;SDS011;52025;50.288;2.794;2023-02-12T07:50:19;23.40;;;13.18;;
65092;SDS011;52025;50.288;2.794;2023-02-12T07:52:47;20.00;;;12.75;;
65092;SDS011;52025;50.288;2.794;2023-02-12T07:55:37;20.25;;;13.55;;
65092;SDS011;52025;50.288;2.794;2023-02-12T07:58:13;21.42;;;12.88;;
65092;SDS011;52025;50.288;2.794;2023-02-12T08:00:38;21.42;;;13.60;;
65092;SDS011;52025;50.288;2.794;2023-02-12T08:03:03;23.50;;;13.85;;
65092;SDS011;52025;50.288;2.794;2023-02-12T08:05:29;23.48;;;13.43;;
65092;SDS011;52025;50.288;2.794;2023-02-12T08:07:54;22.85;;;12.77;;
65092;SDS011;52025;50.288;2.794;2023-02-12T08:10:20;20.52;;;13.10;;
65092;SDS011;52025;50.288;2.794;2023-02-12T08:12:47;21.08;;;13.77;;
65092;SDS011;52025;50.288;2.794;2023-02-12T08:15:12;20.90;;;13.95;;
65092;SDS011;52025;50.288;2.794;2023-02-12T08:17:38;19.95;;;13.50;;
65092;SDS011;52025;50.288;2.794;2023-02-12T08:20:03;20.23;;;13.40;;
65092;SDS011;52025;50.288;2.794;2023-02-12T08:22:29;21.67;;;13.30;;
65092;SDS011;52025;50.288;2.794;2023-02-12T08:24:54;21.33;;;13.90;;
65092;SDS011;52025;50.288;2.794;2023-02-12T08:27:19;19.70;;;13.10;;
65092;SDS011;52025;50.288;2.794;2023-02-12T08:29:45;23.30;;;14.35;;
65092;SDS011;52025;50.288;2.794;2023-02-12T08:32:10;21.95;;;14.52;;
65092;SDS011;52025;50.288;2.794;2023-02-12T08:34:38;21.02;;;12.82;;
65092;SDS011;52025;50.288;2.794;2023-02-12T08:37:04;21.02;;;13.00;;
65092;SDS011;52025;50.288;2.794;2023-02-12T08:39:29;19.95;;;12.57;;
65092;SDS011;52025;50.288;2.794;2023-02-12T08:41:55;21.50;;;13.52;;
65092;SDS011;52025;50.288;2.794;2023-02-12T08:44:21;21.10;;;13.98;;
65092;SDS011;52025;50.288;2.794;2023-02-12T08:46:49;26.90;;;14.68;;
65092;SDS011;52025;50.288;2.794;2023-02-12T08:55:03;22.00;;;13.73;;
65092;SDS011;52025;50.288;2.794;2023-02-12T08:57:29;19.75;;;12.25;;
65092;SDS011;52025;50.288;2.794;2023-02-12T08:59:54;20.23;;;13.45;;
65092;SDS011;52025;50.288;2.794;2023-02-12T09:02:24;20.10;;;12.75;;
65092;SDS011;52025;50.288;2.794;2023-02-12T09:05:00;21.17;;;13.52;;
65092;SDS011;52025;50.288;2.794;2023-02-12T09:07:25;19.77;;;12.65;;
65092;SDS011;52025;50.288;2.794;2023-02-12T09:09:55;22.05;;;13.63;;
65092;SDS011;52025;50.288;2.794;2023-02-12T09:12:31;19.65;;;13.13;;
65092;SDS011;52025;50.288;2.794;2023-02-12T09:15:21;23.90;;;14.18;;
65092;SDS011;52025;50.288;2.794;2023-02-12T09:17:46;24.15;;;14.32;;
65092;SDS011;52025;50.288;2.794;2023-02-12T09:20:15;20.70;;;14.13;;
65092;SDS011;52025;50.288;2.794;2023-02-12T09:22:40;22.25;;;13.43;;
65092;SDS011;52025;50.288;2.794;2023-02-12T09:25:05;21.23;;;13.25;;
65092;SDS011;52025;50.288;2.794;2023-02-12T09:27:31;17.90;;;12.20;;
65092;SDS011;52025;50.288;2.794;2023-02-12T09:29:56;21.98;;;14.60;;
65092;SDS011;52025;50.288;2.794;2023-02-12T09:32:21;22.15;;;13.38;;
65092;SDS011;52025;50.288;2.794;2023-02-12T09:34:46;22.00;;;14.23;;
65092;SDS011;52025;50.288;2.794;2023-02-12T09:37:12;21.65;;;13.18;;
65092;SDS011;52025;50.288;2.794;2023-02-12T09:39:37;18.70;;;13.88;;
65092;SDS011;52025;50.288;2.794;2023-02-12T09:57:10;22.08;;;13.90;;
65092;SDS011;52025;50.288;2.794;2023-02-12T10:00:24;24.02;;;15.20;;
65092;SDS011;52025;50.288;2.794;2023-02-12T10:12:47;18.75;;;12.98;;
65092;SDS011;52025;50.288;2.794;2023-02-12T10:20:49;20.10;;;13.82;;
65092;SDS011;52025;50.288;2.794;2023-02-12T10:26:43;21.08;;;13.18;;
65092;SDS011;52025;50.288;2.794;2023-02-12T10:28:51;20.77;;;13.35;;
65092;SDS011;52025;50.288;2.794;2023-02-12T10:33:48;16.98;;;11.55;;
65092;SDS011;52025;50.288;2.794;2023-02-12T10:39:00;20.52;;;12.98;;
65092;SDS011;52025;50.288;2.794;2023-02-12T10:41:26;20.45;;;13.60;;
65092;SDS011;52025;50.288;2.794;2023-02-12T10:43:55;18.27;;;13.00;;
65092;SDS011;52025;50.288;2.794;2023-02-12T10:46:23;18.17;;;11.90;;
65092;SDS011;52025;50.288;2.794;2023-02-12T10:48:48;20.17;;;12.52;;
65092;SDS011;52025;50.288;2.794;2023-02-12T10:51:37;20.17;;;12.95;;
65092;SDS011;52025;50.288;2.794;2023-02-12T10:57:22;18.10;;;12.27;;
65092;SDS011;52025;50.288;2.794;2023-02-12T10:59:49;17.08;;;12.63;;
65092;SDS011;52025;50.288;2.794;2023-02-12T11:02:31;20.25;;;13.10;;
65092;SDS011;52025;50.288;2.794;2023-02-12T11:04:58;15.70;;;11.05;;
65092;SDS011;52025;50.288;2.794;2023-02-12T11:07:24;16.95;;;11.43;;
65092;SDS011;52025;50.288;2.794;2023-02-12T11:09:53;15.93;;;12.18;;
65092;SDS011;52025;50.288;2.794;2023-02-12T11:14:54;18.83;;;13.48;;
65092;SDS011;52025;50.288;2.794;2023-02-12T11:25:17;20.30;;;13.27;;
65092;SDS011;52025;50.288;2.794;2023-02-12T11:27:42;19.23;;;12.05;;
65092;SDS011;52025;50.288;2.794;2023-02-12T11:30:15;17.92;;;12.18;;
65092;SDS011;52025;50.288;2.794;2023-02-12T11:32:41;20.73;;;14.55;;
65092;SDS011;52025;50.288;2.794;2023-02-12T11:35:13;20.15;;;13.43;;
65092;SDS011;52025;50.288;2.794;2023-02-12T11:40:44;19.73;;;12.82;;
65092;SDS011;52025;50.288;2.794;2023-02-12T11:43:12;17.70;;;12.63;;
65092;SDS011;52025;50.288;2.794;2023-02-12T11:45:43;16.45;;;12.68;;
65092;SDS011;52025;50.288;2.794;2023-02-12T11:48:33;20.67;;;13.65;;
65092;SDS011;52025;50.288;2.794;2023-02-12T11:51:00;16.50;;;11.63;;
65092;SDS011;52025;50.288;2.794;2023-02-12T11:59:08;20.13;;;13.57;;
65092;SDS011;52025;50.288;2.794;2023-02-12T12:01:35;20.52;;;12.82;;
65092;SDS011;52025;50.288;2.794;2023-02-12T12:04:09;19.05;;;13.15;;
65092;SDS011;52025;50.288;2.794;2023-02-12T12:12:52;18.63;;;12.63;;
65092;SDS011;52025;50.288;2.794;2023-02-12T12:18:14;18.23;;;12.45;;
65092;SDS011;52025;50.288;2.794;2023-02-12T12:21:21;19.33;;;12.55;;
65092;SDS011;52025;50.288;2.794;2023-02-12T12:23:56;18.02;;;11.95;;
65092;SDS011;52025;50.288;2.794;2023-02-12T12:26:26;18.83;;;12.85;;
65092;SDS011;52025;50.288;2.794;2023-02-12T13:12:18;15.57;;;8.15;;
65092;SDS011;52025;50.288;2.794;2023-02-12T13:17:34;11.35;;;5.93;;
65092;SDS011;52025;50.288;2.794;2023-02-12T13:22:33;17.65;;;8.88;;
65092;SDS011;52025;50.288;2.794;2023-02-12T13:28:04;13.40;;;8.38;;
65092;SDS011;52025;50.288;2.794;2023-02-12T13:30:36;13.48;;;8.90;;
65092;SDS011;52025;50.288;2.794;2023-02-12T13:33:06;15.43;;;9.57;;
65092;SDS011;52025;50.288;2.794;2023-02-12T13:35:55;15.25;;;8.93;;
65092;SDS011;52025;50.288;2.794;2023-02-12T13:41:13;15.32;;;9.50;;
65092;SDS011;52025;50.288;2.794;2023-02-12T14:12:06;17.85;;;11.52;;
65092;SDS011;52025;50.288;2.794;2023-02-12T14:14:35;21.77;;;11.32;;
65092;SDS011;52025;50.288;2.794;2023-02-12T14:22:59;20.48;;;11.48;;
65092;SDS011;52025;50.288;2.794;2023-02-12T14:25:53;19.40;;;11.10;;
65092;SDS011;52025;50.288;2.794;2023-02-12T14:27:51;15.65;;;10.00;;
65092;SDS011;52025;50.288;2.794;2023-02-12T14:37:50;14.70;;;9.18;;
65092;SDS011;52025;50.288;2.794;2023-02-12T14:40:38;21.33;;;10.02;;
65092;SDS011;52025;50.288;2.794;2023-02-12T15:11:46;25.15;;;10.70;;
65092;SDS011;52025;50.288;2.794;2023-02-12T15:14:21;18.23;;;9.65;;
65092;SDS011;52025;50.288;2.794;2023-02-12T15:16:58;17.52;;;10.30;;
65092;SDS011;52025;50.288;2.794;2023-02-12T15:21:59;21.92;;;10.82;;
65092;SDS011;52025;50.288;2.794;2023-02-12T15:24:25;20.10;;;10.63;;
65092;SDS011;52025;50.288;2.794;2023-02-12T15:26:57;20.45;;;11.43;;
65092;SDS011;52025;50.288;2.794;2023-02-12T15:29:27;24.92;;;10.65;;
65092;SDS011;52025;50.288;2.794;2023-02-12T15:31:54;22.70;;;10.70;;
65092;SDS011;52025;50.288;2.794;2023-02-12T15:34:21;21.80;;;11.63;;
65092;SDS011;52025;50.288;2.794;2023-02-12T15:36:48;18.02;;;10.43;;
65092;SDS011;52025;50.288;2.794;2023-02-12T15:39:14;21.92;;;10.85;;
65092;SDS011;52025;50.288;2.794;2023-02-12T15:41:41;20.05;;;10.00;;
65092;SDS011;52025;50.288;2.794;2023-02-12T15:53:10;21.10;;;11.23;;
65092;SDS011;52025;50.288;2.794;2023-02-12T15:55:46;18.33;;;11.18;;
65092;SDS011;52025;50.288;2.794;2023-02-12T16:01:02;20.13;;;11.43;;
65092;SDS011;52025;50.288;2.794;2023-02-12T16:03:41;21.73;;;11.75;;
65092;SDS011;52025;50.288;2.794;2023-02-12T16:06:36;25.83;;;11.57;;
65092;SDS011;52025;50.288;2.794;2023-02-12T16:12:27;22.73;;;12.20;;
65092;SDS011;52025;50.288;2.794;2023-02-12T16:14:54;21.25;;;11.15;;
65092;SDS011;52025;50.288;2.794;2023-02-12T16:17:21;21.02;;;10.20;;
65092;SDS011;52025;50.288;2.794;2023-02-12T16:19:53;24.52;;;12.07;;
65092;SDS011;52025;50.288;2.794;2023-02-12T16:22:24;22.15;;;11.20;;
65092;SDS011;52025;50.288;2.794;2023-02-12T16:28:28;22.13;;;11.63;;
65092;SDS011;52025;50.288;2.794;2023-02-12T16:30:35;23.58;;;13.40;;
65092;SDS011;52025;50.288;2.794;2023-02-12T16:36:00;23.10;;;13.10;;
65092;SDS011;52025;50.288;2.794;2023-02-12T16:38:40;22.63;;;11.77;;
65092;SDS011;52025;50.288;2.794;2023-02-12T16:49:40;16.85;;;9.43;;
65092;SDS011;52025;50.288;2.794;2023-02-12T17:10:58;17.30;;;10.20;;
65092;SDS011;52025;50.288;2.794;2023-02-12T17:13:24;21.63;;;11.20;;
65092;SDS011;52025;50.288;2.794;2023-02-12T17:15:54;19.63;;;10.80;;
65092;SDS011;52025;50.288;2.794;2023-02-12T17:18:19;18.80;;;10.07;;
65092;SDS011;52025;50.288;2.794;2023-02-12T17:20:47;18.85;;;9.63;;
65092;SDS011;52025;50.288;2.794;2023-02-12T17:23:13;19.20;;;9.93;;
65092;SDS011;52025;50.288;2.794;2023-02-12T17:25:38;16.90;;;7.63;;
65092;SDS011;52025;50.288;2.794;2023-02-12T17:28:04;17.77;;;8.93;;
65092;SDS011;52025;50.288;2.794;2023-02-12T17:30:29;14.63;;;8.57;;
65092;SDS011;52025;50.288;2.794;2023-02-12T17:32:56;16.98;;;9.25;;
65092;SDS011;52025;50.288;2.794;2023-02-12T17:35:21;18.55;;;9.52;;
65092;SDS011;52025;50.288;2.794;2023-02-12T17:37:47;16.63;;;9.30;;
65092;SDS011;52025;50.288;2.794;2023-02-12T17:40:12;17.25;;;9.68;;
65092;SDS011;52025;50.288;2.794;2023-02-12T17:42:37;17.55;;;9.45;;
65092;SDS011;52025;50.288;2.794;2023-02-12T17:45:07;17.58;;;9.75;;
65092;SDS011;52025;50.288;2.794;2023-02-12T17:53:39;14.23;;;8.63;;
65092;SDS011;52025;50.288;2.794;2023-02-12T18:14:04;16.00;;;8.63;;
65092;SDS011;52025;50.288;2.794;2023-02-12T18:16:31;14.23;;;8.30;;
65092;SDS011;52025;50.288;2.794;2023-02-12T18:18:56;15.68;;;8.60;;
65092;SDS011;52025;50.288;2.794;2023-02-12T18:21:23;15.32;;;8.77;;
65092;SDS011;52025;50.288;2.794;2023-02-12T18:23:49;16.00;;;8.77;;
65092;SDS011;52025;50.288;2.794;2023-02-12T18:26:15;12.70;;;8.20;;
65092;SDS011;52025;50.288;2.794;2023-02-12T18:28:40;14.55;;;8.18;;
65092;SDS011;52025;50.288;2.794;2023-02-12T18:31:06;13.02;;;7.63;;
65092;SDS011;52025;50.288;2.794;2023-02-12T18:33:31;15.60;;;8.35;;
65092;SDS011;52025;50.288;2.794;2023-02-12T18:38:25;13.82;;;7.85;;
65092;SDS011;52025;50.288;2.794;2023-02-12T18:40:50;14.20;;;8.55;;
65092;SDS011;52025;50.288;2.794;2023-02-12T19:06:20;18.25;;;9.90;;
65092;SDS011;52025;50.288;2.794;2023-02-12T19:08:45;16.83;;;10.20;;
65092;SDS011;52025;50.288;2.794;2023-02-12T19:11:14;16.63;;;9.23;;
65092;SDS011;52025;50.288;2.794;2023-02-12T19:13:39;17.40;;;9.80;;
65092;SDS011;52025;50.288;2.794;2023-02-12T19:16:10;14.77;;;8.90;;
65092;SDS011;52025;50.288;2.794;2023-02-12T19:18:36;15.90;;;9.57;;
65092;SDS011;52025;50.288;2.794;2023-02-12T19:21:11;16.85;;;9.10;;
65092;SDS011;52025;50.288;2.794;2023-02-12T19:23:37;30.33;;;17.25;;
65092;SDS011;52025;50.288;2.794;2023-02-12T19:26:07;19.73;;;12.25;;
65092;SDS011;52025;50.288;2.794;2023-02-12T19:28:32;15.73;;;10.05;;
65092;SDS011;52025;50.288;2.794;2023-02-12T19:31:07;16.08;;;9.40;;
65092;SDS011;52025;50.288;2.794;2023-02-12T19:33:41;17.70;;;9.80;;
65092;SDS011;52025;50.288;2.794;2023-02-12T19:36:07;18.80;;;10.45;;
65092;SDS011;52025;50.288;2.794;2023-02-12T19:38:34;20.13;;;12.73;;
65092;SDS011;52025;50.288;2.794;2023-02-12T19:41:18;18.98;;;11.13;;
65092;SDS011;52025;50.288;2.794;2023-02-12T19:43:44;17.73;;;10.70;;
65092;SDS011;52025;50.288;2.794;2023-02-12T19:46:10;16.73;;;10.07;;
65092;SDS011;52025;50.288;2.794;2023-02-12T19:48:36;15.93;;;8.90;;
65092;SDS011;52025;50.288;2.794;2023-02-12T19:51:02;18.67;;;10.80;;
65092;SDS011;52025;50.288;2.794;2023-02-12T19:53:27;19.80;;;12.85;;
65092;SDS011;52025;50.288;2.794;2023-02-12T19:55:53;35.58;;;18.77;;
65092;SDS011;52025;50.288;2.794;2023-02-12T19:58:19;28.85;;;16.10;;
65092;SDS011;52025;50.288;2.794;2023-02-12T20:00:44;39.75;;;21.23;;
65092;SDS011;52025;50.288;2.794;2023-02-12T20:03:10;34.50;;;18.50;;
65092;SDS011;52025;50.288;2.794;2023-02-12T20:05:35;30.95;;;17.45;;
65092;SDS011;52025;50.288;2.794;2023-02-12T20:08:08;39.50;;;22.77;;
65092;SDS011;52025;50.288;2.794;2023-02-12T20:10:42;23.95;;;13.57;;
65092;SDS011;52025;50.288;2.794;2023-02-12T20:13:07;21.65;;;12.38;;
65092;SDS011;52025;50.288;2.794;2023-02-12T20:15:34;19.10;;;11.77;;
65092;SDS011;52025;50.288;2.794;2023-02-12T20:18:01;21.67;;;11.57;;
65092;SDS011;52025;50.288;2.794;2023-02-12T20:20:29;15.18;;;9.27;;
65092;SDS011;52025;50.288;2.794;2023-02-12T20:22:54;18.15;;;10.35;;
65092;SDS011;52025;50.288;2.794;2023-02-12T20:25:20;18.08;;;9.73;;
65092;SDS011;52025;50.288;2.794;2023-02-12T20:27:45;15.43;;;9.32;;
65092;SDS011;52025;50.288;2.794;2023-02-12T20:30:11;16.10;;;9.57;;
65092;SDS011;52025;50.288;2.794;2023-02-12T20:32:36;14.15;;;8.73;;
65092;SDS011;52025;50.288;2.794;2023-02-12T20:35:04;16.23;;;8.32;;
65092;SDS011;52025;50.288;2.794;2023-02-12T20:37:32;14.88;;;8.73;;
65092;SDS011;52025;50.288;2.794;2023-02-12T20:39:58;15.20;;;9.23;;
65092;SDS011;52025;50.288;2.794;2023-02-12T20:42:26;15.80;;;9.45;;
65092;SDS011;52025;50.288;2.794;2023-02-12T20:44:51;13.52;;;7.90;;
65092;SDS011;52025;50.288;2.794;2023-02-12T20:47:16;17.88;;;8.43;;
65092;SDS011;52025;50.288;2.794;2023-02-12T20:49:42;13.20;;;7.78;;
65092;SDS011;52025;50.288;2.794;2023-02-12T20:52:07;13.68;;;8.02;;
65092;SDS011;52025;50.288;2.794;2023-02-12T20:54:38;13.82;;;8.18;;
65092;SDS011;52025;50.288;2.794;2023-02-12T20:57:03;14.02;;;8.18;;
65092;SDS011;52025;50.288;2.794;2023-02-12T20:59:30;13.07;;;7.97;;
65092;SDS011;52025;50.288;2.794;2023-02-12T21:01:59;14.70;;;7.63;;
65092;SDS011;52025;50.288;2.794;2023-02-12T21:04:24;13.27;;;7.40;;
65092;SDS011;52025;50.288;2.794;2023-02-12T21:06:49;13.40;;;7.95;;
65092;SDS011;52025;50.288;2.794;2023-02-12T21:09:15;12.43;;;7.22;;
65092;SDS011;52025;50.288;2.794;2023-02-12T21:11:40;15.80;;;8.38;;
65092;SDS011;52025;50.288;2.794;2023-02-12T21:14:09;15.70;;;9.90;;
65092;SDS011;52025;50.288;2.794;2023-02-12T21:16:38;16.02;;;9.27;;
65092;SDS011;52025;50.288;2.794;2023-02-12T21:19:06;16.15;;;8.68;;
65092;SDS011;52025;50.288;2.794;2023-02-12T21:21:33;13.63;;;8.52;;
65092;SDS011;52025;50.288;2.794;2023-02-12T21:23:59;17.10;;;8.27;;
65092;SDS011;52025;50.288;2.794;2023-02-12T21:26:25;13.10;;;7.05;;
65092;SDS011;52025;50.288;2.794;2023-02-12T21:28:54;12.65;;;7.80;;
65092;SDS011;52025;50.288;2.794;2023-02-12T21:31:21;13.75;;;7.57;;
65092;SDS011;52025;50.288;2.794;2023-02-12T21:33:47;11.57;;;7.15;;
65092;SDS011;52025;50.288;2.794;2023-02-12T21:36:16;15.23;;;8.20;;
65092;SDS011;52025;50.288;2.794;2023-02-12T21:38:43;13.02;;;7.65;;
65092;SDS011;52025;50.288;2.794;2023-02-12T21:41:22;12.93;;;7.15;;
65092;SDS011;52025;50.288;2.794;2023-02-12T21:43:49;13.80;;;7.97;;
65092;SDS011;52025;50.288;2.794;2023-02-12T21:46:17;12.20;;;7.15;;
65092;SDS011;52025;50.288;2.794;2023-02-12T21:48:43;12.50;;;7.68;;
65092;SDS011;52025;50.288;2.794;2023-02-12T21:51:22;12.32;;;6.80;;
65092;SDS011;52025;50.288;2.794;2023-02-12T21:53:48;11.63;;;6.78;;
65092;SDS011;52025;50.288;2.794;2023-02-12T21:56:14;13.25;;;6.93;;
65092;SDS011;52025;50.288;2.794;2023-02-12T21:58:42;11.40;;;6.47;;
65092;SDS011;52025;50.288;2.794;2023-02-12T22:01:11;11.93;;;6.22;;
65092;SDS011;52025;50.288;2.794;2023-02-12T22:03:47;10.80;;;6.80;;
65092;SDS011;52025;50.288;2.794;2023-02-12T22:06:13;13.30;;;7.22;;
65092;SDS011;52025;50.288;2.794;2023-02-12T22:08:38;11.30;;;7.00;;
65092;SDS011;52025;50.288;2.794;2023-02-12T22:11:04;14.80;;;8.68;;
65092;SDS011;52025;50.288;2.794;2023-02-12T22:13:30;10.90;;;7.07;;
65092;SDS011;52025;50.288;2.794;2023-02-12T22:15:55;17.00;;;9.57;;
65092;SDS011;52025;50.288;2.794;2023-02-12T22:18:21;9.90;;;5.53;;
65092;SDS011;52025;50.288;2.794;2023-02-12T22:20:46;9.55;;;5.63;;
65092;SDS011;52025;50.288;2.794;2023-02-12T22:23:11;10.73;;;6.05;;
65092;SDS011;52025;50.288;2.794;2023-02-12T22:25:37;12.35;;;7.43;;
65092;SDS011;52025;50.288;2.794;2023-02-12T22:28:02;9.48;;;5.45;;
65092;SDS011;52025;50.288;2.794;2023-02-12T22:30:27;15.77;;;7.50;;
65092;SDS011;52025;50.288;2.794;2023-02-12T22:32:52;11.95;;;7.32;;
65092;SDS011;52025;50.288;2.794;2023-02-12T22:35:18;13.75;;;6.85;;
65092;SDS011;52025;50.288;2.794;2023-02-12T22:37:44;14.65;;;7.53;;
65092;SDS011;52025;50.288;2.794;2023-02-12T22:40:15;13.73;;;7.90;;
65092;SDS011;52025;50.288;2.794;2023-02-12T22:42:41;10.65;;;6.47;;
65092;SDS011;52025;50.288;2.794;2023-02-12T22:45:06;10.65;;;6.30;;
65092;SDS011;52025;50.288;2.794;2023-02-12T22:47:31;10.18;;;6.13;;
65092;SDS011;52025;50.288;2.794;2023-02-12T22:50:00;10.38;;;5.88;;
65092;SDS011;52025;50.288;2.794;2023-02-12T22:52:26;12.90;;;6.57;;
65092;SDS011;52025;50.288;2.794;2023-02-12T22:54:51;10.48;;;6.03;;
65092;SDS011;52025;50.288;2.794;2023-02-12T22:57:16;10.50;;;5.93;;
